createdAt,value
2023-04-29T00:00:52.320Z,368.50
2023-04-29T00:03:20.159Z,384.45
2023-04-29T00:05:48.126Z,397.52
2023-04-29T00:08:16.100Z,395.20
2023-04-29T00:10:45.042Z,362.23
2023-04-29T00:13:13.443Z,390.73
2023-04-29T00:15:41.965Z,375.70
2023-04-29T00:18:10.345Z,389.52
2023-04-29T00:20:57.798Z,378.98
2023-04-29T00:23:25.524Z,373.25
2023-04-29T00:25:54.489Z,355.75
2023-04-29T00:28:22.099Z,372.40
2023-04-29T00:30:50.493Z,387.15
2023-04-29T00:33:18.433Z,388.00
2023-04-29T00:35:46.999Z,382.45
2023-04-29T00:38:14.650Z,379.15
2023-04-29T00:40:43.568Z,377.77
2023-04-29T00:43:12.668Z,405.58
2023-04-29T00:45:40.375Z,393.15
2023-04-29T00:48:08.753Z,383.60
2023-04-29T00:50:37.776Z,384.50
2023-04-29T00:53:05.926Z,393.38
2023-04-29T00:55:34.843Z,376.17
2023-04-29T00:58:02.761Z,422.58
2023-04-29T01:00:32.297Z,381.23
2023-04-29T01:03:00.541Z,403.27
2023-04-29T01:05:28.395Z,386.15
2023-04-29T01:08:12.660Z,385.52
2023-04-29T01:10:46.158Z,372.13
2023-04-29T01:13:19.469Z,395.92
2023-04-29T01:15:58.861Z,401.85
2023-04-29T01:18:30.495Z,388.35
2023-04-29T01:20:59.654Z,381.52
2023-04-29T01:23:29.198Z,377.10
2023-04-29T01:25:58.194Z,416.65
2023-04-29T01:28:52.034Z,374.65
2023-04-29T01:31:26.012Z,368.40
2023-04-29T01:34:07.196Z,386.80
2023-04-29T01:36:46.224Z,377.80
2023-04-29T01:39:22.639Z,367.48
2023-04-29T01:42:03.363Z,390.55
2023-04-29T01:44:33.884Z,373.63
2023-04-29T01:49:40.494Z,382.23
2023-04-29T01:52:08.283Z,368.02
2023-04-29T01:54:39.384Z,364.08
2023-04-29T01:57:07.241Z,366.63
2023-04-29T01:59:43.764Z,381.38
2023-04-29T02:02:21.234Z,365.20
2023-04-29T02:04:57.640Z,344.30
2023-04-29T02:07:25.486Z,363.40
2023-04-29T02:09:54.752Z,395.63
2023-04-29T02:12:23.870Z,381.33
2023-04-29T02:14:53.271Z,379.40
2023-04-29T02:17:21.386Z,369.77
2023-04-29T02:19:49.051Z,377.38
2023-04-29T02:22:16.957Z,360.35
2023-04-29T02:24:44.723Z,363.73
2023-04-29T02:27:13.643Z,369.58
2023-04-29T02:29:41.334Z,386.10
2023-04-29T02:32:10.669Z,356.60
2023-04-29T02:34:39.880Z,384.60
2023-04-29T02:37:07.522Z,369.92
2023-04-29T02:39:35.156Z,367.08
2023-04-29T02:42:02.941Z,365.30
2023-04-29T02:44:31.968Z,374.40
2023-04-29T02:47:00.150Z,374.65
2023-04-29T02:49:27.899Z,365.85
2023-04-29T02:51:55.562Z,359.05
2023-04-29T02:54:23.695Z,371.15
2023-04-29T02:56:51.297Z,377.92
2023-04-29T02:59:19.039Z,360.00
2023-04-29T03:01:48.523Z,382.50
2023-04-29T03:04:16.627Z,378.75
2023-04-29T03:06:44.562Z,369.83
2023-04-29T03:09:14.391Z,362.13
2023-04-29T03:11:45.059Z,367.55
2023-04-29T03:14:12.886Z,365.60
2023-04-29T03:16:41.344Z,378.40
2023-04-29T03:19:10.463Z,357.55
2023-04-29T03:21:38.283Z,375.00
2023-04-29T03:24:06.718Z,372.45
2023-04-29T03:26:35.763Z,359.98
2023-04-29T03:29:05.006Z,345.17
2023-04-29T03:31:34.745Z,384.83
2023-04-29T03:34:02.432Z,367.02
2023-04-29T03:36:34.528Z,357.83
2023-04-29T03:39:07.495Z,365.17
2023-04-29T03:41:35.168Z,355.10
2023-04-29T03:44:03.054Z,354.58
2023-04-29T03:46:30.887Z,358.48
2023-04-29T03:48:58.821Z,361.58
2023-04-29T03:51:26.934Z,348.92
2023-04-29T03:54:03.312Z,342.08
2023-04-29T03:56:30.967Z,364.15
2023-04-29T03:58:58.613Z,376.80
2023-04-29T04:01:27.789Z,352.58
2023-04-29T04:03:55.641Z,363.92
2023-04-29T04:06:23.437Z,350.45
2023-04-29T04:08:52.614Z,351.05
2023-04-29T04:11:27.205Z,361.13
2023-04-29T04:14:02.034Z,344.80
2023-04-29T04:16:30.860Z,333.23
2023-04-29T04:18:59.146Z,335.73
2023-04-29T04:21:27.429Z,360.55
2023-04-29T04:24:01.523Z,349.08
2023-04-29T04:26:32.467Z,361.17
2023-04-29T04:29:08.358Z,350.40
2023-04-29T04:31:55.653Z,353.35
2023-04-29T04:34:24.032Z,367.27
2023-04-29T04:36:53.409Z,352.40
2023-04-29T04:39:22.993Z,370.40
2023-04-29T04:41:53.040Z,374.42
2023-04-29T04:44:21.622Z,363.05
2023-04-29T04:46:58.437Z,353.20
2023-04-29T04:49:40.392Z,363.83
2023-04-29T04:52:08.128Z,375.23
2023-04-29T04:54:38.260Z,369.48
2023-04-29T04:57:15.227Z,352.33
2023-04-29T04:59:43.287Z,345.20
2023-04-29T05:02:11.058Z,370.67
2023-04-29T05:04:38.860Z,359.38
2023-04-29T05:07:06.480Z,353.33
2023-04-29T05:09:49.880Z,369.58
2023-04-29T05:12:18.890Z,353.70
2023-04-29T05:14:46.507Z,347.10
2023-04-29T05:17:14.760Z,371.50
2023-04-29T05:19:43.121Z,376.80
2023-04-29T05:22:13.226Z,365.38
2023-04-29T05:24:42.014Z,364.05
2023-04-29T05:27:10.086Z,350.30
2023-04-29T05:29:39.095Z,383.58
2023-04-29T05:32:07.378Z,367.95
2023-04-29T05:34:35.127Z,352.00
2023-04-29T05:37:03.146Z,371.85
2023-04-29T05:39:32.646Z,374.73
2023-04-29T05:42:09.554Z,366.83
2023-04-29T05:44:43.097Z,345.25
2023-04-29T05:47:10.685Z,364.95
2023-04-29T05:49:40.190Z,374.90
2023-04-29T05:52:08.279Z,362.48
2023-04-29T05:54:41.500Z,366.50
2023-04-29T05:57:09.154Z,370.13
2023-04-29T05:59:36.817Z,345.95
2023-04-29T06:02:07.675Z,362.23
2023-04-29T06:04:37.742Z,354.15
2023-04-29T06:07:15.346Z,346.70
2023-04-29T06:09:52.016Z,357.60
2023-04-29T06:12:19.826Z,353.92
2023-04-29T06:14:48.342Z,349.25
2023-04-29T06:17:17.445Z,336.00
2023-04-29T06:19:45.212Z,368.85
2023-04-29T06:22:13.059Z,359.98
2023-04-29T06:24:45.679Z,359.67
2023-04-29T06:27:16.337Z,345.25
2023-04-29T06:29:43.987Z,350.80
2023-04-29T06:32:13.951Z,344.40
2023-04-29T06:34:43.473Z,353.92
2023-04-29T06:37:37.073Z,339.20
2023-04-29T06:40:25.905Z,348.65
2023-04-29T06:43:22.584Z,314.75
2023-04-29T06:46:17.128Z,349.73
2023-04-29T06:48:52.233Z,349.33
2023-04-29T06:51:21.465Z,342.20
2023-04-29T06:53:49.363Z,344.77
2023-04-29T06:56:17.332Z,345.20
2023-04-29T06:58:44.990Z,349.25
2023-04-29T07:01:12.681Z,358.05
2023-04-29T07:03:40.522Z,353.38
2023-04-29T07:06:08.343Z,327.85
2023-04-29T07:08:37.818Z,353.33
2023-04-29T07:11:06.242Z,327.13
2023-04-29T07:13:33.919Z,335.67
2023-04-29T07:16:01.552Z,321.88
2023-04-29T07:18:29.103Z,336.73
2023-04-29T07:21:02.066Z,337.67
2023-04-29T07:23:30.012Z,336.90
2023-04-29T07:25:58.948Z,337.98
2023-04-29T07:28:26.515Z,327.58
2023-04-29T07:30:54.239Z,333.25
2023-04-29T07:33:22.172Z,354.48
2023-04-29T07:35:50.221Z,332.60
2023-04-29T07:38:17.824Z,321.45
2023-04-29T07:40:45.903Z,321.80
2023-04-29T07:43:15.647Z,338.67
2023-04-29T07:45:43.308Z,353.67
2023-04-29T07:48:11.353Z,339.20
2023-04-29T07:50:38.972Z,334.42
2023-04-29T07:53:07.326Z,323.27
2023-04-29T07:55:34.975Z,326.05
2023-04-29T07:58:02.663Z,321.30
2023-04-29T08:00:31.914Z,306.45
2023-04-29T08:02:59.826Z,314.08
2023-04-29T08:05:28.025Z,305.13
2023-04-29T08:07:56.051Z,278.35
2023-04-29T08:10:27.230Z,301.83
2023-04-29T08:12:54.882Z,310.40
2023-04-29T08:15:23.918Z,323.58
2023-04-29T08:17:53.087Z,316.52
2023-04-29T08:20:20.939Z,312.08
2023-04-29T08:22:48.539Z,350.13
2023-04-29T08:25:16.708Z,337.85
2023-04-29T08:27:45.848Z,327.02
2023-04-29T08:30:13.967Z,326.15
2023-04-29T08:32:41.632Z,327.20
2023-04-29T08:35:11.329Z,338.73
2023-04-29T08:37:38.917Z,317.05
2023-04-29T08:40:08.987Z,320.67
2023-04-29T08:42:38.540Z,323.75
2023-04-29T08:45:07.331Z,323.50
2023-04-29T08:47:35.253Z,307.15
2023-04-29T08:50:05.282Z,327.92
2023-04-29T08:52:35.892Z,331.75
2023-04-29T08:55:05.409Z,325.80
2023-04-29T08:57:39.556Z,322.98
2023-04-29T09:00:10.122Z,323.52
2023-04-29T09:02:42.282Z,307.38
2023-04-29T09:05:11.894Z,317.50
2023-04-29T09:07:41.995Z,317.10
2023-04-29T09:10:10.850Z,326.23
2023-04-29T09:12:38.533Z,294.15
2023-04-29T09:15:07.161Z,305.20
2023-04-29T09:17:46.022Z,297.13
2023-04-29T09:20:28.463Z,293.00
2023-04-29T09:22:58.794Z,288.70
2023-04-29T09:25:26.426Z,291.48
2023-04-29T09:27:54.735Z,277.63
2023-04-29T09:30:22.629Z,290.48
2023-04-29T09:33:08.342Z,294.30
2023-04-29T09:35:36.533Z,282.38
2023-04-29T09:38:14.215Z,293.40
2023-04-29T09:40:58.088Z,285.10
2023-04-29T09:43:27.126Z,287.00
2023-04-29T09:45:55.018Z,297.23
2023-04-29T09:48:22.906Z,312.50
2023-04-29T09:51:01.816Z,299.73
2023-04-29T09:53:32.384Z,298.02
2023-04-29T09:56:01.811Z,303.73
2023-04-29T09:58:31.431Z,314.75
2023-04-29T10:01:01.463Z,305.60
2023-04-29T10:03:33.800Z,335.42
2023-04-29T10:06:02.638Z,330.98
2023-04-29T10:08:32.245Z,350.90
2023-04-29T10:11:01.926Z,336.98
2023-04-29T10:13:30.461Z,333.73
2023-04-29T10:16:05.629Z,354.90
2023-04-29T10:18:38.149Z,334.25
2023-04-29T10:21:08.987Z,351.67
2023-04-29T10:23:38.727Z,348.63
2023-04-29T10:26:08.164Z,340.90
2023-04-29T10:28:38.353Z,342.83
2023-04-29T10:31:08.160Z,323.80
2023-04-29T10:33:37.415Z,339.00
2023-04-29T10:36:05.870Z,328.85
2023-04-29T10:38:41.651Z,333.75
2023-04-29T10:41:21.935Z,333.83
2023-04-29T10:43:49.906Z,319.92
2023-04-29T10:46:22.807Z,333.75
2023-04-29T10:48:57.048Z,332.13
2023-04-29T10:51:33.544Z,342.42
2023-04-29T10:54:04.511Z,334.83
2023-04-29T10:56:40.212Z,327.80
2023-04-29T10:59:11.691Z,333.63
2023-04-29T11:01:57.220Z,350.45
2023-04-29T11:04:24.841Z,330.13
2023-04-29T11:06:54.186Z,327.15
2023-04-29T11:09:27.602Z,327.00
2023-04-29T11:12:04.067Z,336.92
2023-04-29T11:14:36.336Z,531.20
2023-04-29T11:17:05.233Z,373.85
2023-04-29T11:19:34.617Z,350.00
2023-04-29T11:22:11.701Z,353.58
2023-04-29T11:24:52.379Z,337.13
2023-04-29T11:27:25.036Z,344.33
2023-04-29T11:29:55.752Z,336.92
2023-04-29T11:32:23.966Z,318.60
2023-04-29T11:34:51.821Z,350.98
2023-04-29T11:37:27.850Z,343.27
2023-04-29T11:40:02.096Z,336.70
2023-04-29T11:42:29.861Z,336.38
2023-04-29T11:44:59.303Z,317.15
2023-04-29T11:47:29.582Z,321.58
2023-04-29T11:50:04.455Z,335.75
2023-04-29T11:52:32.166Z,322.02
2023-04-29T11:55:01.928Z,340.75
2023-04-29T11:57:30.264Z,349.90
2023-04-29T11:59:58.649Z,349.77
2023-04-29T12:02:30.713Z,343.23
2023-04-29T12:04:59.078Z,336.48
2023-04-29T12:07:27.601Z,336.13
2023-04-29T12:09:56.353Z,319.73
2023-04-29T12:12:27.518Z,342.63
2023-04-29T12:14:56.011Z,335.30
2023-04-29T12:17:25.200Z,367.73
2023-04-29T12:19:53.165Z,321.45
2023-04-29T12:22:21.077Z,300.77
2023-04-29T12:24:50.695Z,306.92
2023-04-29T12:27:18.712Z,292.83
2023-04-29T12:29:47.808Z,308.67
2023-04-29T12:32:18.728Z,303.83
2023-04-29T12:34:47.181Z,314.30
2023-04-29T12:37:16.353Z,294.88
2023-04-29T12:39:43.945Z,273.65
2023-04-29T12:42:17.125Z,284.10
2023-04-29T12:44:48.147Z,274.73
2023-04-29T12:47:17.464Z,278.60
2023-04-29T12:49:46.589Z,280.77
2023-04-29T12:52:15.784Z,294.45
2023-04-29T12:54:44.374Z,304.23
2023-04-29T12:57:12.819Z,311.55
2023-04-29T12:59:40.959Z,313.25
2023-04-29T13:02:10.274Z,317.95
2023-04-29T13:04:39.109Z,319.25
2023-04-29T13:07:07.638Z,319.42
2023-04-29T13:09:37.840Z,300.73
2023-04-29T13:12:09.200Z,308.98
2023-04-29T13:14:37.101Z,304.60
2023-04-29T13:17:04.990Z,257.27
2023-04-29T13:19:48.197Z,278.90
2023-04-29T13:22:17.734Z,275.13
2023-04-29T13:24:45.877Z,294.00
2023-04-29T13:27:13.507Z,286.80
2023-04-29T13:29:41.414Z,285.30
2023-04-29T13:32:09.277Z,294.88
2023-04-29T13:34:38.486Z,291.42
2023-04-29T13:37:06.174Z,279.42
2023-04-29T13:39:37.886Z,266.48
2023-04-29T13:42:06.390Z,276.73
2023-04-29T13:44:47.186Z,297.85
2023-04-29T13:47:25.166Z,258.83
2023-04-29T13:53:10.763Z,283.52
2023-04-29T14:00:38.206Z,272.90
2023-04-29T14:03:03.757Z,250.45
2023-04-29T14:05:33.284Z,282.08
2023-04-29T14:08:01.400Z,272.77
2023-04-29T14:10:29.453Z,300.73
2023-04-29T14:12:57.057Z,271.20
2023-04-29T14:15:24.660Z,277.75
2023-04-29T14:17:53.254Z,276.95
2023-04-29T14:20:21.183Z,272.00
2023-04-29T14:22:50.109Z,279.63
2023-04-29T14:25:17.795Z,262.10
2023-04-29T14:27:45.456Z,242.70
2023-04-29T14:30:13.554Z,271.15
2023-04-29T14:32:41.208Z,252.25
2023-04-29T14:35:10.122Z,247.90
2023-04-29T14:37:37.738Z,255.50
2023-04-29T14:40:09.278Z,276.30
2023-04-29T14:42:37.062Z,258.10
2023-04-29T14:45:05.405Z,280.27
2023-04-29T14:47:33.085Z,264.77
2023-04-29T14:50:00.707Z,249.10
2023-04-29T14:52:28.351Z,270.63
2023-04-29T14:54:56.385Z,257.67
2023-04-29T14:57:25.564Z,272.73
2023-04-29T14:59:53.153Z,278.48
2023-04-29T15:02:20.808Z,271.33
2023-04-29T15:04:49.006Z,288.17
2023-04-29T15:07:17.173Z,283.83
2023-04-29T15:09:45.773Z,270.77
2023-04-29T15:12:14.371Z,293.60
2023-04-29T15:14:43.321Z,295.08
2023-04-29T15:17:10.926Z,271.85
2023-04-29T15:19:38.560Z,271.17
2023-04-29T15:22:06.148Z,263.02
2023-04-29T15:24:33.909Z,280.58
2023-04-29T15:27:02.364Z,277.15
2023-04-29T15:29:32.568Z,277.88
2023-04-29T15:32:01.690Z,290.40
2023-04-29T15:34:29.584Z,264.80
2023-04-29T15:36:57.213Z,276.70
2023-04-29T15:39:24.995Z,293.15
2023-04-29T15:41:53.829Z,301.95
2023-04-29T15:44:21.457Z,285.90
2023-04-29T15:46:49.240Z,284.60
2023-04-29T15:49:18.695Z,303.02
2023-04-29T15:51:46.272Z,292.70
2023-04-29T15:54:13.876Z,292.60
2023-04-29T15:56:41.663Z,269.00
2023-04-29T15:59:09.679Z,282.88
2023-04-29T16:01:37.305Z,299.48
2023-04-29T16:04:05.600Z,284.20
2023-04-29T16:06:34.642Z,279.42
2023-04-29T16:09:03.809Z,288.25
2023-04-29T16:11:31.462Z,287.90
2023-04-29T16:13:59.259Z,282.58
2023-04-29T16:16:27.050Z,287.55
2023-04-29T16:18:54.684Z,302.63
2023-04-29T16:21:22.324Z,284.30
2023-04-29T16:23:52.103Z,296.27
2023-04-29T16:26:19.880Z,274.55
2023-04-29T16:28:47.468Z,309.27
2023-04-29T16:31:15.518Z,298.52
2023-04-29T16:33:43.154Z,307.48
2023-04-29T16:36:10.794Z,304.02
2023-04-29T16:38:38.644Z,299.25
2023-04-29T16:41:07.708Z,293.58
2023-04-29T16:43:35.375Z,300.02
2023-04-29T16:46:03.142Z,314.80
2023-04-29T16:48:31.423Z,324.30
2023-04-29T16:50:59.087Z,317.00
2023-04-29T16:53:26.749Z,297.50
2023-04-29T16:55:54.550Z,310.45
2023-04-29T16:58:23.764Z,298.10
2023-04-29T17:00:52.034Z,301.25
2023-04-29T17:03:19.778Z,294.50
2023-04-29T17:05:48.583Z,295.00
2023-04-29T17:08:16.818Z,318.58
2023-04-29T17:10:45.108Z,303.30
2023-04-29T17:13:12.704Z,319.95
2023-04-29T17:15:41.834Z,322.15
2023-04-29T17:18:09.551Z,329.92
2023-04-29T17:20:37.228Z,332.55
2023-04-29T17:23:04.854Z,316.83
2023-04-29T17:25:32.789Z,336.90
2023-04-29T17:28:00.935Z,336.65
2023-04-29T17:30:28.736Z,334.00
2023-04-29T17:32:57.724Z,335.65
2023-04-29T17:35:25.343Z,336.15
2023-04-29T17:37:53.041Z,324.27
2023-04-29T17:40:20.878Z,344.42
2023-04-29T17:42:48.488Z,343.38
2023-04-29T17:45:16.520Z,354.10
2023-04-29T17:47:44.208Z,347.73
2023-04-29T17:50:13.381Z,341.30
2023-04-29T17:52:41.103Z,352.20
2023-04-29T17:55:09.592Z,354.92
2023-04-29T17:57:37.976Z,351.02
2023-04-29T18:00:07.297Z,354.35
2023-04-29T18:02:35.121Z,357.02
2023-04-29T18:05:03.066Z,356.65
2023-04-29T18:07:32.175Z,342.88
2023-04-29T18:09:59.800Z,359.23
2023-04-29T18:12:27.505Z,351.25
2023-04-29T18:14:55.155Z,350.50
2023-04-29T18:17:22.776Z,338.20
2023-04-29T18:19:50.518Z,348.08
2023-04-29T18:22:18.388Z,324.50
2023-04-29T18:24:48.312Z,338.02
2023-04-29T18:27:16.375Z,331.65
2023-04-29T18:29:45.779Z,353.83
2023-04-29T18:32:13.413Z,342.92
2023-04-29T18:34:41.078Z,357.30
2023-04-29T18:37:08.912Z,321.13
2023-04-29T18:39:36.779Z,338.65
2023-04-29T18:42:05.737Z,332.58
2023-04-29T18:44:34.130Z,338.50
2023-04-29T18:47:02.031Z,331.40
2023-04-29T18:49:30.206Z,310.02
2023-04-29T18:51:57.809Z,335.60
2023-04-29T18:54:25.588Z,331.30
2023-04-29T18:56:53.235Z,335.80
2023-04-29T18:59:22.260Z,321.10
2023-04-29T19:01:49.904Z,330.90
2023-04-29T19:04:17.852Z,337.00
2023-04-29T19:06:45.600Z,312.90
2023-04-29T19:09:13.606Z,315.48
2023-04-29T19:11:41.547Z,344.13
2023-04-29T19:14:09.445Z,328.73
2023-04-29T19:16:38.473Z,346.13
2023-04-29T19:19:06.709Z,326.98
2023-04-29T19:21:34.621Z,324.50
2023-04-29T19:24:02.391Z,333.65
2023-04-29T19:26:33.002Z,308.80
2023-04-29T19:29:02.791Z,337.08
2023-04-29T19:31:30.549Z,336.83
2023-04-29T19:33:59.596Z,316.67
2023-04-29T19:36:27.411Z,308.08
2023-04-29T19:38:55.109Z,317.88
2023-04-29T19:41:22.744Z,310.20
2023-04-29T19:43:50.611Z,333.30
2023-04-29T19:46:18.285Z,311.67
2023-04-29T19:48:45.972Z,312.67
2023-04-29T19:51:14.874Z,316.35
2023-04-29T19:53:42.473Z,340.42
2023-04-29T19:56:10.222Z,316.45
2023-04-29T19:58:37.793Z,327.45
2023-04-29T20:01:05.616Z,327.85
2023-04-29T20:03:35.904Z,333.80
2023-04-29T20:06:04.395Z,333.08
2023-04-29T20:08:33.426Z,336.67
2023-04-29T20:11:02.527Z,304.73
2023-04-29T20:13:30.247Z,324.65
2023-04-29T20:15:57.951Z,309.75
2023-04-29T20:18:26.175Z,307.63
2023-04-29T20:20:53.825Z,319.35
2023-04-29T20:23:21.462Z,310.83
2023-04-29T20:25:50.757Z,319.83
2023-04-29T20:28:18.403Z,294.65
2023-04-29T20:30:46.179Z,292.08
2023-04-29T20:33:13.938Z,317.35
2023-04-29T20:35:41.555Z,316.42
2023-04-29T20:38:09.181Z,315.80
2023-04-29T20:40:36.870Z,307.50
2023-04-29T20:43:05.807Z,292.15
2023-04-29T20:45:34.036Z,304.60
2023-04-29T20:48:01.701Z,300.05
2023-04-29T20:50:29.582Z,313.88
2023-04-29T20:52:57.544Z,323.10
2023-04-29T20:55:25.275Z,297.25
2023-04-29T20:57:52.868Z,303.88
2023-04-29T21:00:21.811Z,305.73
2023-04-29T21:02:49.451Z,309.80
2023-04-29T21:05:17.667Z,310.90
2023-04-29T21:07:45.430Z,320.25
2023-04-29T21:10:13.550Z,318.73
2023-04-29T21:12:41.272Z,300.50
2023-04-29T21:15:10.016Z,300.23
2023-04-29T21:17:39.005Z,315.77
2023-04-29T21:20:08.660Z,310.92
2023-04-29T21:22:36.244Z,291.45
2023-04-29T21:25:05.218Z,311.33
2023-04-29T21:27:32.873Z,301.77
2023-04-29T21:30:00.704Z,319.45
2023-04-29T21:32:29.474Z,301.88
2023-04-29T21:34:58.592Z,312.67
2023-04-29T21:37:26.320Z,301.35
2023-04-29T21:39:57.304Z,315.23
2023-04-29T21:42:26.322Z,294.95
2023-04-29T21:44:54.352Z,311.63
2023-04-29T21:47:21.963Z,302.17
2023-04-29T21:49:50.367Z,307.02
2023-04-29T21:52:20.050Z,305.08
2023-04-29T21:54:47.650Z,302.60
2023-04-29T21:57:15.297Z,314.73
2023-04-29T21:59:42.931Z,295.15
2023-04-29T22:02:21.872Z,319.50
2023-04-29T22:04:51.284Z,301.92
2023-04-29T22:07:21.861Z,302.58
2023-04-29T22:09:50.456Z,304.65
2023-04-29T22:12:18.781Z,296.70
2023-04-29T22:14:46.819Z,291.67
2023-04-29T22:17:14.846Z,311.42
2023-04-29T22:19:42.875Z,315.52
2023-04-29T22:22:11.117Z,305.10
2023-04-29T22:24:40.067Z,305.55
2023-04-29T22:27:07.656Z,301.75
2023-04-29T22:29:35.448Z,300.83
2023-04-29T22:32:03.132Z,301.15
2023-04-29T22:34:30.785Z,290.00
2023-04-29T22:36:58.448Z,293.90
2023-04-29T22:39:26.074Z,298.60
2023-04-29T22:41:55.022Z,282.98
2023-04-29T22:44:22.630Z,312.48
2023-04-29T22:46:50.239Z,300.45
2023-04-29T22:49:18.329Z,288.42
2023-04-29T22:51:45.961Z,304.30
2023-04-29T22:54:14.282Z,276.75
2023-04-29T22:56:41.884Z,285.83
2023-04-29T22:59:10.877Z,287.85
2023-04-29T23:01:38.647Z,297.23
2023-04-29T23:04:06.299Z,299.45
2023-04-29T23:06:34.865Z,292.63
2023-04-29T23:09:02.569Z,270.10
2023-04-29T23:11:31.893Z,295.50
2023-04-29T23:13:59.541Z,289.23
2023-04-29T23:16:28.551Z,271.40
2023-04-29T23:18:56.163Z,284.90
2023-04-29T23:21:23.814Z,308.40
2023-04-29T23:23:51.539Z,281.63
2023-04-29T23:26:19.125Z,295.95
2023-04-29T23:28:46.827Z,301.48
2023-04-29T23:31:14.452Z,288.90
2023-04-29T23:33:43.470Z,277.10
2023-04-29T23:36:11.748Z,288.17
2023-04-29T23:38:39.449Z,297.20
2023-04-29T23:41:07.091Z,293.15
2023-04-29T23:43:34.728Z,278.88
2023-04-29T23:46:02.484Z,292.67
2023-04-29T23:48:30.233Z,292.65
2023-04-29T23:50:59.150Z,299.35
2023-04-29T23:53:26.861Z,284.73
2023-04-29T23:55:54.423Z,284.90
2023-04-29T23:58:22.048Z,287.80
